San Francisco (SFO/KSFO)

Information

Location
San Francisco, CA
Local Time
06:14 / 6:14 am
GMT Time
14:14 / 2:14 pm
Gates
Unassigned
No FAA reported delays
METAR KSFO 221356Z 21010KT 10SM FEW019 BKN050 OVC070 11/09 A2969 RMK AO2 PK WND 17030/1257 WSHFT 1253 RAE51 SLP054 P0008 T01110089
TAF KSFO 221130Z 2212/2318 17020G30KT 5SM SHRA BKN020 OVC030 WS020/19060KT FM221330 21013KT 6SM -SHRA OVC040 FM221800 21010KT P6SM VCSH SCT040 BKN060 FM222100 22015G25KT P6SM VCTS OVC050CB FM230300 23012KT P6SM VCTS BKN050CB
  • No charts available